createdAt,value
2022-11-25T00:00:43.669Z,8.63
2022-11-25T00:01:43.739Z,8.63
2022-11-25T00:02:43.832Z,8.61
2022-11-25T00:03:43.629Z,8.61
2022-11-25T00:04:43.627Z,8.63
2022-11-25T00:05:43.604Z,8.63
2022-11-25T00:06:43.603Z,8.61
2022-11-25T00:07:43.639Z,8.63
2022-11-25T00:08:43.607Z,8.63
2022-11-25T00:09:43.591Z,8.63
2022-11-25T00:10:43.564Z,8.63
2022-11-25T00:11:43.559Z,8.63
2022-11-25T00:12:43.539Z,8.63
2022-11-25T00:13:43.516Z,8.63
2022-11-25T00:14:43.540Z,8.64
2022-11-25T00:15:43.497Z,8.64
2022-11-25T00:16:48.123Z,8.64
2022-11-25T00:17:44.473Z,8.64
2022-11-25T00:18:43.467Z,8.66
2022-11-25T00:19:43.514Z,8.66
2022-11-25T00:20:43.449Z,8.67
2022-11-25T00:21:43.417Z,8.69
2022-11-25T00:22:43.442Z,8.69
2022-11-25T00:23:43.442Z,8.70
2022-11-25T00:24:43.418Z,8.71
2022-11-25T00:25:43.409Z,8.73
2022-11-25T00:26:43.372Z,8.73
2022-11-25T00:27:43.367Z,8.73
2022-11-25T00:28:43.374Z,8.74
2022-11-25T00:29:43.333Z,8.76
2022-11-25T00:30:43.335Z,8.76
2022-11-25T00:31:43.377Z,8.78
2022-11-25T00:32:43.312Z,8.78
2022-11-25T00:33:43.292Z,8.79
2022-11-25T00:34:43.288Z,8.79
2022-11-25T00:35:43.261Z,8.79
2022-11-25T00:36:43.263Z,8.79
2022-11-25T00:37:43.296Z,8.79
2022-11-25T00:38:43.231Z,8.81
2022-11-25T00:39:43.266Z,8.81
2022-11-25T00:40:43.253Z,8.81
2022-11-25T00:41:43.212Z,8.79
2022-11-25T00:42:43.204Z,8.79
2022-11-25T00:43:43.181Z,8.79
2022-11-25T00:44:43.195Z,8.78
2022-11-25T00:45:43.232Z,8.76
2022-11-25T00:46:43.186Z,8.76
2022-11-25T00:47:43.132Z,8.74
2022-11-25T00:48:43.146Z,8.74
2022-11-25T00:49:43.150Z,8.74
2022-11-25T00:50:43.104Z,8.71
2022-11-25T00:51:43.092Z,8.73
2022-11-25T00:52:43.085Z,8.74
2022-11-25T00:53:43.056Z,8.74
2022-11-25T00:54:43.068Z,8.74
2022-11-25T00:55:43.113Z,8.73
2022-11-25T00:56:43.111Z,8.73
2022-11-25T00:57:43.049Z,8.74
2022-11-25T00:58:43.057Z,8.79
2022-11-25T00:59:43.016Z,8.79
2022-11-25T01:00:43.032Z,8.82
2022-11-25T01:01:42.977Z,8.84
2022-11-25T01:02:43.045Z,8.82
2022-11-25T01:03:42.962Z,8.84
2022-11-25T01:04:42.968Z,8.85
2022-11-25T01:05:42.952Z,8.85
2022-11-25T01:06:42.970Z,8.89
2022-11-25T01:07:42.960Z,8.89
2022-11-25T01:08:42.902Z,8.91
2022-11-25T01:09:42.902Z,8.92
2022-11-25T01:10:42.889Z,8.94
2022-11-25T01:11:42.893Z,8.95
2022-11-25T01:12:42.899Z,8.97
2022-11-25T01:13:42.848Z,8.95
2022-11-25T01:14:42.848Z,8.99
2022-11-25T01:15:42.819Z,8.99
2022-11-25T01:16:42.873Z,9.02
2022-11-25T01:17:42.801Z,9.04
2022-11-25T01:18:42.823Z,9.10
2022-11-25T01:19:42.794Z,9.11
2022-11-25T01:20:42.799Z,9.13
2022-11-25T01:21:42.762Z,9.16
2022-11-25T01:22:42.776Z,9.16
2022-11-25T01:23:42.752Z,9.19
2022-11-25T01:24:42.791Z,9.21
2022-11-25T01:25:42.728Z,9.21
2022-11-25T01:26:42.730Z,9.22
2022-11-25T01:27:42.699Z,9.22
2022-11-25T01:28:42.727Z,9.22
2022-11-25T01:29:42.711Z,9.21
2022-11-25T01:30:42.681Z,9.23
2022-11-25T01:31:42.699Z,9.23
2022-11-25T01:32:42.642Z,9.22
2022-11-25T01:33:42.633Z,9.25
2022-11-25T01:34:42.640Z,9.23
2022-11-25T01:35:42.625Z,9.23
2022-11-25T01:36:42.604Z,9.25
2022-11-25T01:37:42.591Z,9.25
2022-11-25T01:38:42.584Z,9.25
2022-11-25T01:39:42.556Z,9.25
2022-11-25T01:40:42.585Z,9.26
2022-11-25T01:41:42.544Z,9.26
2022-11-25T01:42:42.556Z,9.28
2022-11-25T01:43:42.528Z,9.28
2022-11-25T01:44:43.477Z,9.31
2022-11-25T01:45:42.540Z,9.34
2022-11-25T01:46:42.539Z,9.34
2022-11-25T01:47:42.496Z,9.34
2022-11-25T01:48:42.500Z,9.34
2022-11-25T01:49:42.485Z,9.36
2022-11-25T01:50:42.446Z,9.37
2022-11-25T01:51:42.467Z,9.37
2022-11-25T01:52:42.437Z,9.36
2022-11-25T01:53:42.409Z,9.34
2022-11-25T01:54:42.417Z,9.36
2022-11-25T01:55:42.403Z,9.34
2022-11-25T01:56:42.394Z,9.34
2022-11-25T01:57:42.388Z,9.34
2022-11-25T01:58:42.359Z,9.37
2022-11-25T01:59:42.354Z,9.37
2022-11-25T02:00:42.334Z,9.37
2022-11-25T02:01:42.389Z,9.37
2022-11-25T02:02:42.397Z,9.39
2022-11-25T02:03:42.309Z,9.39
2022-11-25T02:04:42.303Z,9.39
2022-11-25T02:05:42.289Z,9.39
2022-11-25T02:06:42.297Z,9.40
2022-11-25T02:07:42.270Z,9.39
2022-11-25T02:08:42.271Z,9.39
2022-11-25T02:09:42.257Z,9.40
2022-11-25T02:10:42.233Z,9.41
2022-11-25T02:11:42.235Z,9.41
2022-11-25T02:12:42.216Z,9.43
2022-11-25T02:13:42.218Z,9.43
2022-11-25T02:14:42.192Z,9.46
2022-11-25T02:15:42.176Z,9.46
2022-11-25T02:16:42.191Z,9.46
2022-11-25T02:17:42.145Z,9.47
2022-11-25T02:18:42.151Z,9.47
2022-11-25T02:19:42.172Z,9.48
2022-11-25T02:20:42.143Z,9.48
2022-11-25T02:21:42.116Z,9.50
2022-11-25T02:22:42.105Z,9.50
2022-11-25T02:23:42.079Z,9.50
2022-11-25T02:24:42.076Z,9.51
2022-11-25T02:25:42.107Z,9.54
2022-11-25T02:26:42.079Z,9.54
2022-11-25T02:27:42.037Z,9.55
2022-11-25T02:28:42.036Z,9.55
2022-11-25T02:29:42.047Z,9.56
2022-11-25T02:30:42.022Z,9.56
2022-11-25T02:31:42.100Z,9.56
2022-11-25T02:32:41.977Z,9.58
2022-11-25T02:33:41.976Z,9.59
2022-11-25T02:34:41.972Z,9.61
2022-11-25T02:35:41.992Z,9.61
2022-11-25T02:36:41.956Z,9.61
2022-11-25T02:37:41.962Z,9.62
2022-11-25T02:38:41.928Z,9.62
2022-11-25T02:39:41.929Z,9.62
2022-11-25T02:40:41.939Z,9.62
2022-11-25T02:41:41.869Z,9.62
2022-11-25T02:42:41.868Z,9.61
2022-11-25T02:43:41.851Z,9.65
2022-11-25T02:44:41.885Z,9.65
2022-11-25T02:45:41.904Z,9.66
2022-11-25T02:46:41.861Z,9.66
2022-11-25T02:47:41.826Z,9.66
2022-11-25T02:49:42.835Z,9.69
2022-11-25T02:50:42.738Z,9.69
2022-11-25T02:51:41.804Z,9.68
2022-11-25T02:52:42.733Z,9.69
2022-11-25T02:53:41.780Z,9.69
2022-11-25T02:54:41.772Z,9.69
2022-11-25T02:55:41.742Z,9.68
2022-11-25T02:56:41.731Z,9.73
2022-11-25T02:57:41.702Z,9.69
2022-11-25T02:58:41.722Z,9.69
2022-11-25T02:59:41.686Z,9.69
2022-11-25T03:00:41.715Z,9.69
2022-11-25T03:01:41.761Z,9.69
2022-11-25T03:02:41.713Z,9.69
2022-11-25T03:03:41.669Z,9.72
2022-11-25T03:04:41.644Z,9.72
2022-11-25T03:05:42.578Z,9.72
2022-11-25T03:06:41.663Z,9.73
2022-11-25T03:07:41.711Z,9.72
2022-11-25T03:08:41.577Z,9.73
2022-11-25T03:09:41.600Z,9.72
2022-11-25T03:10:41.562Z,9.73
2022-11-25T03:11:41.546Z,9.73
2022-11-25T03:12:41.526Z,9.76
2022-11-25T03:13:41.532Z,9.76
2022-11-25T03:14:41.530Z,9.76
2022-11-25T03:15:41.503Z,9.74
2022-11-25T03:16:41.564Z,9.76
2022-11-25T03:17:41.478Z,9.74
2022-11-25T03:18:41.470Z,9.76
2022-11-25T03:19:41.482Z,9.76
2022-11-25T03:20:41.450Z,9.77
2022-11-25T03:21:41.429Z,9.77
2022-11-25T03:22:41.437Z,9.77
2022-11-25T03:23:41.409Z,9.77
2022-11-25T03:24:41.457Z,9.77
2022-11-25T03:25:41.393Z,9.79
2022-11-25T03:26:41.424Z,9.79
2022-11-25T03:27:41.373Z,9.79
2022-11-25T03:28:41.363Z,9.79
2022-11-25T03:29:41.340Z,9.77
2022-11-25T03:30:41.360Z,9.77
2022-11-25T03:31:41.402Z,9.77
2022-11-25T03:32:41.310Z,9.77
2022-11-25T03:33:41.311Z,9.82
2022-11-25T03:34:41.313Z,9.80
2022-11-25T03:35:41.311Z,9.82
2022-11-25T03:36:41.314Z,9.82
2022-11-25T03:37:41.260Z,9.83
2022-11-25T03:38:41.272Z,9.86
2022-11-25T03:39:41.233Z,9.84
2022-11-25T03:40:41.262Z,9.86
2022-11-25T03:41:41.218Z,9.86
2022-11-25T03:42:41.201Z,9.86
2022-11-25T03:43:41.193Z,9.87
2022-11-25T03:44:41.198Z,9.87
2022-11-25T03:45:41.321Z,9.89
2022-11-25T03:46:41.184Z,9.89
2022-11-25T03:47:41.145Z,9.87
2022-11-25T03:48:41.134Z,9.91
2022-11-25T03:49:41.182Z,9.89
2022-11-25T03:50:41.142Z,9.89
2022-11-25T03:51:41.129Z,9.91
2022-11-25T03:52:41.094Z,9.92
2022-11-25T03:53:41.081Z,9.92
2022-11-25T03:54:41.124Z,9.94
2022-11-25T03:55:41.076Z,9.94
2022-11-25T03:56:41.045Z,9.94
2022-11-25T03:57:41.066Z,9.94
2022-11-25T03:58:41.032Z,9.95
2022-11-25T03:59:41.058Z,9.95
2022-11-25T04:00:41.005Z,9.95
2022-11-25T04:01:44.196Z,9.97
2022-11-25T04:02:41.051Z,9.97
2022-11-25T04:03:40.971Z,9.95
2022-11-25T04:04:40.959Z,9.91
2022-11-25T04:05:40.982Z,9.87
2022-11-25T04:06:40.970Z,9.86
2022-11-25T04:07:41.042Z,9.84
2022-11-25T04:08:40.926Z,9.83
2022-11-25T04:09:40.901Z,9.80
2022-11-25T04:10:40.922Z,9.77
2022-11-25T04:11:40.886Z,9.76
2022-11-25T04:12:40.854Z,9.73
2022-11-25T04:13:40.864Z,9.73
2022-11-25T04:14:40.840Z,9.72
2022-11-25T04:15:40.841Z,9.68
2022-11-25T04:16:40.920Z,9.68
2022-11-25T04:17:40.825Z,9.65
2022-11-25T04:18:40.794Z,9.64
2022-11-25T04:19:40.811Z,9.62
2022-11-25T04:20:40.777Z,9.64
2022-11-25T04:21:40.803Z,9.64
2022-11-25T04:22:40.760Z,9.64
2022-11-25T04:23:40.787Z,9.62
2022-11-25T04:24:40.758Z,9.62
2022-11-25T04:25:40.740Z,9.61
2022-11-25T04:26:40.707Z,9.59
2022-11-25T04:27:40.736Z,9.55
2022-11-25T04:28:40.684Z,9.54
2022-11-25T04:29:41.635Z,9.54
2022-11-25T04:30:40.750Z,9.50
2022-11-25T04:31:40.659Z,9.47
2022-11-25T04:32:40.639Z,9.48
2022-11-25T04:33:40.671Z,9.47
2022-11-25T04:34:40.627Z,9.47
2022-11-25T04:35:40.626Z,9.47
2022-11-25T04:36:40.595Z,9.47
2022-11-25T04:37:40.596Z,9.48
2022-11-25T04:38:40.581Z,9.48
2022-11-25T04:39:40.612Z,9.48
2022-11-25T04:40:40.564Z,9.50
2022-11-25T04:41:40.547Z,9.48
2022-11-25T04:42:40.549Z,9.46
2022-11-25T04:43:40.527Z,9.46
2022-11-25T04:44:40.568Z,9.43
2022-11-25T04:46:41.572Z,9.41
2022-11-25T04:47:40.482Z,9.41
2022-11-25T04:48:40.481Z,9.41
2022-11-25T04:49:40.468Z,9.39
2022-11-25T04:50:40.470Z,9.40
2022-11-25T04:51:40.447Z,9.40
2022-11-25T04:52:40.449Z,9.39
2022-11-25T04:53:40.438Z,9.39
2022-11-25T04:54:40.395Z,9.39
2022-11-25T04:55:40.440Z,9.37
2022-11-25T04:56:40.372Z,9.37
2022-11-25T04:57:40.415Z,9.39
2022-11-25T04:58:40.383Z,9.39
2022-11-25T04:59:40.394Z,9.37
2022-11-25T05:00:40.350Z,9.36
2022-11-25T05:01:40.400Z,9.36
2022-11-25T05:02:40.383Z,9.34
2022-11-25T05:03:44.955Z,9.32
2022-11-25T05:04:41.292Z,9.34
2022-11-25T05:05:40.296Z,9.34
2022-11-25T05:06:40.293Z,9.36
2022-11-25T05:07:40.382Z,9.34
2022-11-25T05:08:40.266Z,9.32
2022-11-25T05:09:41.014Z,9.29
2022-11-25T05:10:40.265Z,9.31
2022-11-25T05:11:40.582Z,9.29
2022-11-25T05:12:40.247Z,9.28
2022-11-25T05:13:40.270Z,9.29
2022-11-25T05:14:41.140Z,9.29
2022-11-25T05:15:40.176Z,9.28
2022-11-25T05:16:40.263Z,9.29
2022-11-25T05:17:40.195Z,9.29
2022-11-25T05:18:40.168Z,9.29
2022-11-25T05:19:40.131Z,9.29
2022-11-25T05:20:40.119Z,9.29
2022-11-25T05:21:40.106Z,9.28
2022-11-25T05:22:40.117Z,9.28
2022-11-25T05:23:40.130Z,9.29
2022-11-25T05:24:40.075Z,9.28
2022-11-25T05:25:40.072Z,9.28
2022-11-25T05:26:40.052Z,9.28
2022-11-25T05:27:40.077Z,9.29
2022-11-25T05:28:40.158Z,9.28
2022-11-25T05:29:40.229Z,9.28
2022-11-25T05:30:40.098Z,9.25
2022-11-25T05:31:40.010Z,9.23
2022-11-25T05:32:41.463Z,9.22
2022-11-25T05:33:41.440Z,9.21
2022-11-25T05:34:39.991Z,9.19
2022-11-25T05:35:39.995Z,9.19
2022-11-25T05:36:39.951Z,9.19
2022-11-25T05:37:39.952Z,9.19
2022-11-25T05:38:40.453Z,9.21
2022-11-25T05:39:39.931Z,9.19
2022-11-25T05:40:39.910Z,9.18
2022-11-25T05:41:39.930Z,9.16
2022-11-25T05:42:39.891Z,9.13
2022-11-25T05:43:39.879Z,9.13
2022-11-25T05:44:39.883Z,9.16
2022-11-25T05:45:39.913Z,9.14
2022-11-25T05:46:39.843Z,9.13
2022-11-25T05:47:39.852Z,9.14
2022-11-25T05:48:39.832Z,9.16
2022-11-25T05:49:39.802Z,9.16
2022-11-25T05:50:39.783Z,9.16
2022-11-25T05:51:39.785Z,9.18
2022-11-25T05:52:39.796Z,9.18
2022-11-25T05:53:39.765Z,9.18
2022-11-25T05:54:39.749Z,9.14
2022-11-25T05:55:40.685Z,9.18
2022-11-25T05:56:39.768Z,9.18
2022-11-25T05:57:39.716Z,9.16
2022-11-25T05:58:39.724Z,9.16
2022-11-25T05:59:39.706Z,9.18
2022-11-25T06:00:39.675Z,9.16
2022-11-25T06:01:39.686Z,9.14
2022-11-25T06:02:39.828Z,9.13
2022-11-25T06:03:39.889Z,9.14
2022-11-25T06:04:39.800Z,9.13
2022-11-25T06:05:39.647Z,9.14
2022-11-25T06:06:39.628Z,9.14
2022-11-25T06:07:39.699Z,9.14
2022-11-25T06:08:39.615Z,9.14
2022-11-25T06:09:39.595Z,9.14
2022-11-25T06:10:39.582Z,9.13
2022-11-25T06:11:39.576Z,9.13
2022-11-25T06:12:39.549Z,9.13
2022-11-25T06:13:39.580Z,9.11
2022-11-25T06:14:39.527Z,9.08
2022-11-25T06:15:41.009Z,9.08
2022-11-25T06:16:39.511Z,9.06
2022-11-25T06:17:39.681Z,9.04
2022-11-25T06:18:39.548Z,9.04
2022-11-25T06:19:39.524Z,9.02
2022-11-25T06:20:39.469Z,9.03
2022-11-25T06:21:39.454Z,9.03
2022-11-25T06:22:39.507Z,9.03
2022-11-25T06:23:39.489Z,9.00
2022-11-25T06:24:39.455Z,8.99
2022-11-25T06:25:39.425Z,8.99
2022-11-25T06:26:39.411Z,8.99
2022-11-25T06:28:10.783Z,8.97
2022-11-25T06:28:40.962Z,8.97
2022-11-25T06:29:39.423Z,8.97
2022-11-25T06:30:39.354Z,8.97
2022-11-25T06:31:39.585Z,8.99
2022-11-25T06:32:39.325Z,9.00
2022-11-25T06:33:39.362Z,8.99
2022-11-25T06:34:39.329Z,9.00
2022-11-25T06:35:39.328Z,8.99
2022-11-25T06:36:39.284Z,9.00
2022-11-25T06:37:39.285Z,9.00
2022-11-25T06:38:39.264Z,9.02
2022-11-25T06:39:40.220Z,9.03
2022-11-25T06:40:39.266Z,9.03
2022-11-25T06:41:39.235Z,9.03
2022-11-25T06:42:39.223Z,9.04
2022-11-25T06:43:40.101Z,9.06
2022-11-25T06:44:39.216Z,9.06
2022-11-25T06:45:39.278Z,9.08
2022-11-25T06:46:39.297Z,9.06
2022-11-25T06:47:39.186Z,9.04
2022-11-25T06:48:40.108Z,9.03
2022-11-25T06:49:40.123Z,9.03
2022-11-25T06:50:39.156Z,9.03
2022-11-25T06:51:39.143Z,9.02
2022-11-25T06:52:39.130Z,9.02
2022-11-25T06:53:39.142Z,9.02
2022-11-25T06:54:39.098Z,9.00
2022-11-25T06:55:39.085Z,9.00
2022-11-25T06:56:39.068Z,9.00
2022-11-25T06:57:39.054Z,9.00
2022-11-25T06:58:39.058Z,9.02
2022-11-25T06:59:39.053Z,9.02
2022-11-25T07:00:39.026Z,9.02
2022-11-25T07:01:39.146Z,9.00
2022-11-25T07:02:44.103Z,9.02
2022-11-25T07:03:40.438Z,9.02
2022-11-25T07:04:38.975Z,9.00
2022-11-25T07:05:38.966Z,9.00
2022-11-25T07:06:39.005Z,8.99
2022-11-25T07:07:38.992Z,9.00
2022-11-25T07:08:38.943Z,9.02
2022-11-25T07:09:38.952Z,9.03
2022-11-25T07:10:38.924Z,9.03
2022-11-25T07:11:38.913Z,9.04
2022-11-25T07:12:38.904Z,9.06
2022-11-25T07:13:38.883Z,9.06
2022-11-25T07:14:39.073Z,9.06
2022-11-25T07:15:38.941Z,9.06
2022-11-25T07:16:38.861Z,9.08
2022-11-25T07:17:38.838Z,9.06
2022-11-25T07:18:38.834Z,9.10
2022-11-25T07:19:38.841Z,9.06
2022-11-25T07:20:38.813Z,9.02
2022-11-25T07:21:38.788Z,9.00
2022-11-25T07:22:38.815Z,9.00
2022-11-25T07:23:38.770Z,8.95
2022-11-25T07:24:38.887Z,8.92
2022-11-25T07:25:38.766Z,8.92
2022-11-25T07:26:38.745Z,8.89
2022-11-25T07:27:38.756Z,8.88
2022-11-25T07:28:38.738Z,8.87
2022-11-25T07:31:22.769Z,8.82
2022-11-25T07:31:39.719Z,8.81
2022-11-25T07:32:38.728Z,8.79
2022-11-25T07:33:38.733Z,8.76
2022-11-25T07:34:38.690Z,8.74
2022-11-25T07:35:38.638Z,8.70
2022-11-25T07:36:38.649Z,8.70
2022-11-25T07:37:38.619Z,8.70
2022-11-25T07:38:42.215Z,8.71
2022-11-25T07:39:39.890Z,8.70
2022-11-25T07:40:38.618Z,8.69
2022-11-25T07:41:38.589Z,8.70
2022-11-25T07:42:38.792Z,8.71
2022-11-25T07:43:38.560Z,8.70
2022-11-25T07:44:38.550Z,8.71
2022-11-25T07:45:38.530Z,8.73
2022-11-25T07:46:38.664Z,8.74
2022-11-25T07:47:38.512Z,8.76
2022-11-25T07:48:38.550Z,8.78
2022-11-25T07:49:39.575Z,8.79
2022-11-25T07:50:38.492Z,8.81
2022-11-25T07:51:38.498Z,8.79
2022-11-25T07:52:38.463Z,8.79
2022-11-25T07:53:38.465Z,8.79
2022-11-25T07:54:38.442Z,8.79
2022-11-25T07:55:38.424Z,8.79
2022-11-25T07:56:38.405Z,8.79
2022-11-25T07:57:38.394Z,8.82
2022-11-25T07:58:42.783Z,8.85
2022-11-25T07:59:39.629Z,8.85
2022-11-25T08:00:38.396Z,8.85
2022-11-25T08:01:38.458Z,8.85
2022-11-25T08:02:38.596Z,8.88
2022-11-25T08:03:38.384Z,8.89
2022-11-25T08:04:38.326Z,8.91
2022-11-25T08:05:38.454Z,8.91
2022-11-25T08:06:38.375Z,8.94
2022-11-25T08:07:38.338Z,8.94
2022-11-25T08:08:38.298Z,8.97
2022-11-25T08:09:38.685Z,9.00
2022-11-25T08:10:39.206Z,9.00
2022-11-25T08:11:38.260Z,9.02
2022-11-25T08:12:38.271Z,9.02
2022-11-25T08:13:38.226Z,9.03
2022-11-25T08:14:38.248Z,9.03
2022-11-25T08:15:38.271Z,9.04
2022-11-25T08:16:38.186Z,9.04
2022-11-25T08:17:38.569Z,9.06
2022-11-25T08:18:38.172Z,9.06
2022-11-25T08:19:38.582Z,9.08
2022-11-25T08:20:38.160Z,9.06
2022-11-25T08:21:38.130Z,9.03
2022-11-25T08:22:38.160Z,9.03
2022-11-25T08:23:38.142Z,9.00
2022-11-25T08:24:38.109Z,9.02
2022-11-25T08:25:38.109Z,9.00
2022-11-25T08:26:38.070Z,9.00
2022-11-25T08:27:39.039Z,9.00
2022-11-25T08:28:38.081Z,9.03
2022-11-25T08:29:38.243Z,9.02
2022-11-25T08:30:38.035Z,9.03
2022-11-25T08:31:38.142Z,9.02
2022-11-25T08:32:38.089Z,9.04
2022-11-25T08:33:38.051Z,9.06
2022-11-25T08:34:37.996Z,9.10
2022-11-25T08:35:37.998Z,9.10
2022-11-25T08:36:37.974Z,9.10
2022-11-25T08:37:37.959Z,9.10
2022-11-25T08:38:37.969Z,9.08
2022-11-25T08:39:52.267Z,9.08
2022-11-25T08:40:38.954Z,9.08
2022-11-25T08:41:37.907Z,9.10
2022-11-25T08:42:37.912Z,9.08
2022-11-25T08:43:37.901Z,9.08
2022-11-25T08:44:37.885Z,9.11
2022-11-25T08:45:37.953Z,9.11
2022-11-25T08:46:37.959Z,9.11
2022-11-25T08:47:37.844Z,9.11
2022-11-25T08:48:37.843Z,9.11
2022-11-25T08:49:41.341Z,9.11
2022-11-25T08:50:37.842Z,9.13
2022-11-25T08:51:37.795Z,9.11
2022-11-25T08:52:37.815Z,9.10
2022-11-25T08:53:37.783Z,9.11
2022-11-25T08:54:37.786Z,9.11
2022-11-25T08:55:37.786Z,9.13
2022-11-25T08:56:37.829Z,9.18
2022-11-25T08:57:37.763Z,9.16
2022-11-25T08:58:37.733Z,9.19
2022-11-25T08:59:37.984Z,9.21
2022-11-25T09:00:37.723Z,9.22
2022-11-25T09:01:37.790Z,9.25
2022-11-25T09:02:37.783Z,9.25
2022-11-25T09:03:37.698Z,9.28
2022-11-25T09:04:37.668Z,9.28
2022-11-25T09:05:37.656Z,9.31
2022-11-25T09:06:37.685Z,9.32
2022-11-25T09:07:37.759Z,9.34
2022-11-25T09:08:37.619Z,9.36
2022-11-25T09:09:37.821Z,9.40
2022-11-25T09:10:38.562Z,9.43
2022-11-25T09:11:37.623Z,9.44
2022-11-25T09:12:37.590Z,9.48
2022-11-25T09:13:37.629Z,9.55
2022-11-25T09:14:37.553Z,9.61
2022-11-25T09:15:37.943Z,9.64
2022-11-25T09:16:37.623Z,9.69
2022-11-25T09:17:38.477Z,9.74
2022-11-25T09:18:37.515Z,9.79
2022-11-25T09:19:37.694Z,9.83
2022-11-25T09:20:37.492Z,9.86
2022-11-25T09:21:37.504Z,9.89
2022-11-25T09:22:37.472Z,9.91
2022-11-25T09:23:37.494Z,9.92
2022-11-25T09:24:37.454Z,9.97
2022-11-25T09:25:37.463Z,9.99
2022-11-25T09:26:37.424Z,10.02
2022-11-25T09:27:37.439Z,10.07
2022-11-25T09:28:37.437Z,10.09
2022-11-25T09:29:37.579Z,10.13
2022-11-25T09:30:37.368Z,10.17
2022-11-25T09:31:37.448Z,10.20
2022-11-25T09:32:37.357Z,10.22
2022-11-25T09:33:38.093Z,10.23
2022-11-25T09:34:42.559Z,10.26
2022-11-25T09:35:37.337Z,10.30
2022-11-25T09:36:37.334Z,10.31
2022-11-25T09:37:37.391Z,10.31
2022-11-25T09:38:41.679Z,10.31
2022-11-25T09:39:38.585Z,10.34
2022-11-25T09:40:37.278Z,10.33
2022-11-25T09:41:38.231Z,10.31
2022-11-25T09:42:37.284Z,10.34
2022-11-25T09:43:37.260Z,10.35
2022-11-25T09:44:37.279Z,10.35
2022-11-25T09:45:37.198Z,10.40
2022-11-25T09:46:37.276Z,10.41
2022-11-25T09:47:39.309Z,10.38
2022-11-25T09:48:37.232Z,10.40
2022-11-25T09:49:37.426Z,10.40
2022-11-25T09:50:37.174Z,10.41
2022-11-25T09:51:37.168Z,10.41
2022-11-25T09:52:37.164Z,10.40
2022-11-25T09:53:37.118Z,10.42
2022-11-25T09:54:37.563Z,10.42
2022-11-25T09:55:37.103Z,10.46
2022-11-25T09:56:37.081Z,10.44
2022-11-25T09:57:37.081Z,10.46
2022-11-25T09:58:37.071Z,10.46
2022-11-25T09:59:37.457Z,10.46
2022-11-25T10:00:37.084Z,10.49
2022-11-25T10:01:37.019Z,10.48
2022-11-25T10:02:37.136Z,10.49
2022-11-25T10:03:37.069Z,10.51
2022-11-25T10:04:37.009Z,10.53
2022-11-25T10:05:37.037Z,10.54
2022-11-25T10:06:37.047Z,10.54
2022-11-25T10:07:37.029Z,10.54
2022-11-25T10:08:36.982Z,10.54
2022-11-25T10:09:37.170Z,10.56
2022-11-25T10:10:36.965Z,10.57
2022-11-25T10:11:36.917Z,10.59
2022-11-25T10:12:36.924Z,10.60
2022-11-25T10:13:36.947Z,10.61
2022-11-25T10:14:37.287Z,10.64
2022-11-25T10:15:36.872Z,10.67
2022-11-25T10:16:37.042Z,10.67
2022-11-25T10:17:36.923Z,10.68
2022-11-25T10:18:36.884Z,10.69
2022-11-25T10:19:37.155Z,10.69
2022-11-25T10:20:36.825Z,10.69
2022-11-25T10:21:36.803Z,10.71
2022-11-25T10:22:36.805Z,10.69
2022-11-25T10:23:36.808Z,10.71
2022-11-25T10:24:41.102Z,10.72
2022-11-25T10:25:36.773Z,10.72
2022-11-25T10:26:36.757Z,10.74
2022-11-25T10:27:36.812Z,10.74
2022-11-25T10:28:36.737Z,10.76
2022-11-25T10:29:36.763Z,10.76
2022-11-25T10:30:36.717Z,10.78
2022-11-25T10:31:36.784Z,10.82
2022-11-25T10:32:36.696Z,10.84
2022-11-25T10:33:36.676Z,10.86
2022-11-25T10:34:37.105Z,10.89
2022-11-25T10:35:36.691Z,10.90
2022-11-25T10:36:36.682Z,10.89
2022-11-25T10:37:36.677Z,10.92
2022-11-25T10:38:36.641Z,10.94
2022-11-25T10:39:36.656Z,10.97
2022-11-25T10:40:36.621Z,10.99
2022-11-25T10:41:36.622Z,11.04
2022-11-25T10:42:36.593Z,11.07
2022-11-25T10:43:37.649Z,11.12
2022-11-25T10:44:36.954Z,11.17
2022-11-25T10:45:36.541Z,11.23
2022-11-25T10:47:11.061Z,11.23
2022-11-25T10:47:37.632Z,11.25
2022-11-25T10:48:41.314Z,11.25
2022-11-25T10:49:37.501Z,11.25
2022-11-25T10:50:36.492Z,11.25
2022-11-25T10:51:36.506Z,11.25
2022-11-25T10:52:36.468Z,11.26
2022-11-25T10:53:36.453Z,11.25
2022-11-25T10:54:36.447Z,11.25
2022-11-25T10:55:36.477Z,11.23
2022-11-25T10:56:36.416Z,11.25
2022-11-25T10:57:36.480Z,11.23
2022-11-25T10:58:36.416Z,11.23
2022-11-25T10:59:36.391Z,11.23
2022-11-25T11:00:36.390Z,11.22
2022-11-25T11:01:36.447Z,11.23
2022-11-25T11:02:36.438Z,11.25
2022-11-25T11:03:36.344Z,11.29
2022-11-25T11:04:36.537Z,11.30
2022-11-25T11:05:36.322Z,11.33
2022-11-25T11:06:36.351Z,11.36
2022-11-25T11:07:36.500Z,11.37
2022-11-25T11:08:36.289Z,11.36
2022-11-25T11:09:36.295Z,11.35
2022-11-25T11:10:36.268Z,11.33
2022-11-25T11:11:36.264Z,11.32
2022-11-25T11:12:36.273Z,11.30
2022-11-25T11:13:36.240Z,11.29
2022-11-25T11:14:37.409Z,11.27
2022-11-25T11:15:36.407Z,11.25
2022-11-25T11:16:36.275Z,11.25
2022-11-25T11:17:37.329Z,11.26
2022-11-25T11:18:36.225Z,11.25
2022-11-25T11:19:36.179Z,11.25
2022-11-25T11:20:36.168Z,11.25
2022-11-25T11:21:36.143Z,11.26
2022-11-25T11:22:36.142Z,11.26
2022-11-25T11:23:36.124Z,11.26
2022-11-25T11:24:36.463Z,11.26
2022-11-25T11:25:36.317Z,11.27
2022-11-25T11:26:36.105Z,11.27
2022-11-25T11:27:36.081Z,11.29
2022-11-25T11:28:36.069Z,11.27
2022-11-25T11:29:36.065Z,11.29
2022-11-25T11:30:36.059Z,11.32
2022-11-25T11:31:36.156Z,11.35
2022-11-25T11:32:36.606Z,11.40
2022-11-25T11:33:36.074Z,11.44
2022-11-25T11:34:36.172Z,11.45
2022-11-25T11:35:41.552Z,11.48
2022-11-25T11:36:36.985Z,11.51
2022-11-25T11:37:35.966Z,11.54
2022-11-25T11:38:37.441Z,11.59
2022-11-25T11:39:35.980Z,11.63
2022-11-25T11:40:36.016Z,11.63
2022-11-25T11:41:36.135Z,11.62
2022-11-25T11:42:35.927Z,11.65
2022-11-25T11:43:36.085Z,11.66
2022-11-25T11:44:36.177Z,11.70
2022-11-25T11:45:36.719Z,11.72
2022-11-25T11:46:35.951Z,11.77
2022-11-25T11:47:35.872Z,11.80
2022-11-25T11:48:35.847Z,11.83
2022-11-25T11:49:36.068Z,11.86
2022-11-25T11:50:35.889Z,11.88
2022-11-25T11:51:35.810Z,11.91
2022-11-25T11:52:35.824Z,11.91
2022-11-25T11:53:35.801Z,11.91
2022-11-25T11:54:37.167Z,11.91
2022-11-25T11:55:35.834Z,11.94
2022-11-25T11:56:36.347Z,11.94
2022-11-25T11:57:35.819Z,11.95
2022-11-25T11:58:35.746Z,11.97
2022-11-25T11:59:35.729Z,11.97
2022-11-25T12:00:35.724Z,11.97
2022-11-25T12:01:35.804Z,12.00
2022-11-25T12:02:35.696Z,12.00
2022-11-25T12:03:35.849Z,12.03
2022-11-25T12:04:36.019Z,12.03
2022-11-25T12:05:35.646Z,12.02
2022-11-25T12:06:35.677Z,12.00
2022-11-25T12:07:35.756Z,11.97
2022-11-25T12:08:35.644Z,11.97
2022-11-25T12:09:35.629Z,11.97
2022-11-25T12:10:35.646Z,11.99
2022-11-25T12:11:35.587Z,12.03
2022-11-25T12:12:35.598Z,12.06
2022-11-25T12:13:35.584Z,12.07
2022-11-25T12:14:36.782Z,12.12
2022-11-25T12:15:35.569Z,12.18
2022-11-25T12:16:35.577Z,12.21
2022-11-25T12:17:36.338Z,12.25
2022-11-25T12:18:35.534Z,12.29
2022-11-25T12:19:35.497Z,12.32
2022-11-25T12:20:36.485Z,12.37
2022-11-25T12:21:40.370Z,12.40
2022-11-25T12:22:36.476Z,12.43
2022-11-25T12:23:35.481Z,12.46
2022-11-25T12:24:35.777Z,12.42
2022-11-25T12:25:35.472Z,12.42
2022-11-25T12:26:35.433Z,12.42
2022-11-25T12:27:35.427Z,12.40
2022-11-25T12:28:35.473Z,12.42
2022-11-25T12:29:35.414Z,12.43
2022-11-25T12:30:35.388Z,12.45
2022-11-25T12:31:35.448Z,12.45
2022-11-25T12:32:35.373Z,12.40
2022-11-25T12:33:35.381Z,12.42
2022-11-25T12:34:35.653Z,12.40
2022-11-25T12:35:35.330Z,12.39
2022-11-25T12:36:35.366Z,12.36
2022-11-25T12:37:35.294Z,12.36
2022-11-25T12:38:35.303Z,12.36
2022-11-25T12:39:35.322Z,12.39
2022-11-25T12:40:35.372Z,12.43
2022-11-25T12:41:35.262Z,12.46
2022-11-25T12:42:35.322Z,12.46
2022-11-25T12:43:35.237Z,12.45
2022-11-25T12:44:36.449Z,12.46
2022-11-25T12:45:35.269Z,12.46
2022-11-25T12:46:35.216Z,12.40
2022-11-25T12:47:35.234Z,12.39
2022-11-25T12:48:35.202Z,12.36
2022-11-25T12:49:35.163Z,12.32
2022-11-25T12:50:35.173Z,12.32
2022-11-25T12:51:35.169Z,12.36
2022-11-25T12:52:36.110Z,12.35
2022-11-25T12:53:35.155Z,12.35
2022-11-25T12:54:36.429Z,12.37
2022-11-25T12:55:35.106Z,12.42
2022-11-25T12:56:36.586Z,12.47
2022-11-25T12:57:35.113Z,12.55
2022-11-25T12:58:35.590Z,12.62
2022-11-25T12:59:35.208Z,12.68
2022-11-25T13:00:42.966Z,12.72
2022-11-25T13:01:36.187Z,12.76
2022-11-25T13:02:35.184Z,12.76
2022-11-25T13:03:35.065Z,12.72
2022-11-25T13:04:35.327Z,12.76
2022-11-25T13:05:40.474Z,12.76
2022-11-25T13:06:36.008Z,12.80
2022-11-25T13:07:35.218Z,12.86
2022-11-25T13:08:34.987Z,12.90
2022-11-25T13:09:35.924Z,12.86
2022-11-25T13:10:34.984Z,12.86
2022-11-25T13:11:35.318Z,12.79
2022-11-25T13:12:35.232Z,12.78
2022-11-25T13:13:35.280Z,12.82